createdAt,value
2017-07-15T00:01:21.489Z,11.97
2017-07-15T00:03:47.784Z,11.03
2017-07-15T00:06:14.100Z,12.30
2017-07-15T00:08:40.366Z,12.60
2017-07-15T00:11:06.630Z,11.30
2017-07-15T00:13:32.924Z,12.97
2017-07-15T00:15:59.254Z,12.80
2017-07-15T00:18:26.296Z,12.43
2017-07-15T00:20:52.582Z,12.80
2017-07-15T00:23:18.865Z,11.90
2017-07-15T00:25:45.155Z,11.70
2017-07-15T00:28:11.421Z,11.10
2017-07-15T00:30:37.708Z,11.83
2017-07-15T00:33:03.979Z,12.33
2017-07-15T00:35:30.259Z,12.00
2017-07-15T00:37:56.541Z,12.30
2017-07-15T00:40:22.826Z,12.93
2017-07-15T00:42:49.098Z,12.70
2017-07-15T00:45:16.138Z,12.90
2017-07-15T00:47:42.415Z,13.13
2017-07-15T00:50:08.687Z,13.77
2017-07-15T00:52:34.999Z,13.83
2017-07-15T00:55:01.289Z,13.67
2017-07-15T00:57:28.320Z,13.23
2017-07-15T00:59:55.339Z,12.83
2017-07-15T01:02:21.611Z,13.13
2017-07-15T01:04:48.623Z,12.80
2017-07-15T01:07:14.932Z,14.97
2017-07-15T01:09:41.211Z,14.20
2017-07-15T01:12:08.205Z,14.77
2017-07-15T01:14:34.493Z,14.07
2017-07-15T01:17:00.792Z,12.80
2017-07-15T01:19:27.094Z,14.93
2017-07-15T01:21:53.350Z,15.77
2017-07-15T01:24:19.675Z,15.30
2017-07-15T01:26:45.956Z,16.07
2017-07-15T01:29:12.264Z,16.20
2017-07-15T01:31:39.283Z,16.40
2017-07-15T01:34:05.584Z,18.10
2017-07-15T01:36:33.053Z,18.07
2017-07-15T01:38:59.353Z,18.17
2017-07-15T01:41:25.654Z,18.47
2017-07-15T01:43:52.669Z,19.83
2017-07-15T01:46:18.981Z,19.73
2017-07-15T01:48:45.293Z,19.57
2017-07-15T01:51:11.621Z,19.77
2017-07-15T01:53:37.906Z,19.43
2017-07-15T01:56:04.947Z,20.03
2017-07-15T01:58:32.794Z,19.97
2017-07-15T02:00:59.102Z,18.50
2017-07-15T02:03:25.394Z,20.67
2017-07-15T02:05:51.696Z,20.17
2017-07-15T02:08:17.980Z,20.60
2017-07-15T02:10:44.258Z,21.17
2017-07-15T02:13:11.302Z,19.40
2017-07-15T02:15:37.586Z,20.10
2017-07-15T02:18:03.870Z,20.20
2017-07-15T02:20:30.129Z,21.40
2017-07-15T02:22:56.426Z,19.93
2017-07-15T02:25:23.447Z,20.13
2017-07-15T02:27:49.721Z,21.03
2017-07-15T02:30:16.727Z,20.97
2017-07-15T02:32:43.033Z,21.10
2017-07-15T02:35:09.308Z,20.00
2017-07-15T02:37:36.351Z,19.33
2017-07-15T02:40:02.640Z,20.27
2017-07-15T02:42:28.902Z,21.00
2017-07-15T02:44:55.185Z,20.00
2017-07-15T02:47:21.451Z,19.57
2017-07-15T02:49:47.759Z,20.50
2017-07-15T02:52:14.043Z,21.03
2017-07-15T02:54:41.066Z,18.53
2017-07-15T02:57:07.340Z,19.57
2017-07-15T02:59:33.635Z,20.50
2017-07-15T03:01:59.905Z,21.07
2017-07-15T03:04:26.193Z,20.30
2017-07-15T03:06:52.510Z,19.30
2017-07-15T03:09:18.793Z,20.30
2017-07-15T03:11:45.071Z,21.20
2017-07-15T03:14:11.398Z,19.27
2017-07-15T03:16:37.707Z,18.77
2017-07-15T03:19:04.004Z,19.60
2017-07-15T03:21:30.311Z,17.90
2017-07-15T03:23:56.627Z,17.83
2017-07-15T03:26:36.120Z,15.13
2017-07-15T03:29:03.117Z,13.70
2017-07-15T03:31:29.421Z,13.07
2017-07-15T03:33:55.735Z,16.20
2017-07-15T03:36:22.042Z,16.57
2017-07-15T03:38:48.331Z,18.93
2017-07-15T03:41:14.619Z,21.93
2017-07-15T03:43:40.902Z,21.93
2017-07-15T03:46:07.942Z,21.30
2017-07-15T03:48:34.212Z,23.00
2017-07-15T03:51:00.486Z,22.33
2017-07-15T03:53:26.775Z,24.50
2017-07-15T03:55:53.053Z,23.90
2017-07-15T03:58:20.117Z,25.57
2017-07-15T04:00:47.128Z,23.33
2017-07-15T04:03:13.428Z,24.57
2017-07-15T04:05:39.711Z,23.57
2017-07-15T04:08:05.978Z,25.60
2017-07-15T04:10:32.283Z,24.53
2017-07-15T04:12:59.296Z,24.63
2017-07-15T04:15:25.609Z,25.07
2017-07-15T04:17:51.899Z,26.07
2017-07-15T04:20:18.186Z,26.80
2017-07-15T04:22:45.258Z,25.80
2017-07-15T04:25:11.608Z,27.70
2017-07-15T04:27:37.878Z,26.30
2017-07-15T04:30:04.182Z,30.70
2017-07-15T04:32:30.484Z,29.50
2017-07-15T04:34:56.785Z,28.43
2017-07-15T04:37:23.104Z,28.80
2017-07-15T04:39:49.379Z,31.10
2017-07-15T04:42:15.682Z,29.20
2017-07-15T04:44:42.760Z,31.53
2017-07-15T04:47:09.854Z,34.27
2017-07-15T04:49:36.175Z,36.47
2017-07-15T04:52:02.502Z,33.70
2017-07-15T04:54:28.771Z,36.70
2017-07-15T04:56:55.810Z,38.37
2017-07-15T04:59:22.106Z,40.90
2017-07-15T05:01:48.390Z,40.40
2017-07-15T05:04:15.427Z,44.17
2017-07-15T05:06:41.730Z,42.80
2017-07-15T05:09:08.025Z,42.17
2017-07-15T05:11:34.321Z,41.40
2017-07-15T05:14:01.358Z,43.23
2017-07-15T05:16:28.397Z,43.77
2017-07-15T05:18:55.436Z,43.60
2017-07-15T05:21:21.719Z,43.27
2017-07-15T05:23:48.006Z,42.97
2017-07-15T05:26:14.312Z,42.67
2017-07-15T05:28:40.615Z,42.50
2017-07-15T05:31:06.909Z,41.20
2017-07-15T05:33:33.948Z,41.57
2017-07-15T05:36:00.238Z,41.20
2017-07-15T05:38:26.519Z,39.83
2017-07-15T05:40:53.558Z,40.37
2017-07-15T05:43:19.864Z,39.53
2017-07-15T05:45:46.158Z,40.13
2017-07-15T05:48:12.431Z,38.33
2017-07-15T05:50:38.741Z,39.77
2017-07-15T05:53:05.050Z,40.83
2017-07-15T05:55:31.334Z,40.63
2017-07-15T05:57:58.361Z,42.00
2017-07-15T06:00:25.421Z,39.80
2017-07-15T06:02:52.474Z,38.93
2017-07-15T06:05:19.508Z,39.90
2017-07-15T06:07:46.554Z,37.43
2017-07-15T06:10:12.889Z,39.47
2017-07-15T06:12:39.177Z,38.80
2017-07-15T06:15:05.534Z,38.37
2017-07-15T06:17:31.843Z,36.87
2017-07-15T06:19:58.128Z,37.90
2017-07-15T06:22:25.168Z,35.73
2017-07-15T06:24:52.203Z,37.93
2017-07-15T06:27:19.303Z,35.80
2017-07-15T06:29:45.645Z,32.57
2017-07-15T06:32:11.929Z,39.00
2017-07-15T06:34:38.979Z,33.13
2017-07-15T06:37:06.016Z,31.57
2017-07-15T06:39:33.078Z,33.10
2017-07-15T06:42:00.120Z,33.20
2017-07-15T06:44:27.814Z,32.53
2017-07-15T06:46:54.116Z,30.30
2017-07-15T06:49:21.182Z,30.67
2017-07-15T06:51:47.476Z,30.87
2017-07-15T06:54:14.508Z,30.70
2017-07-15T06:56:40.817Z,29.30
2017-07-15T06:59:07.104Z,31.87
2017-07-15T07:01:33.401Z,28.87
2017-07-15T07:03:59.715Z,28.07
2017-07-15T07:06:26.027Z,27.63
2017-07-15T07:08:52.347Z,26.60
2017-07-15T07:11:18.629Z,26.40
2017-07-15T07:13:45.686Z,28.30
2017-07-15T07:16:12.741Z,27.17
2017-07-15T07:18:39.890Z,26.10
2017-07-15T07:21:06.266Z,26.77
2017-07-15T07:23:32.582Z,26.17
2017-07-15T07:25:58.903Z,26.93
2017-07-15T07:28:25.196Z,25.40
2017-07-15T07:30:51.469Z,24.93
2017-07-15T07:33:17.783Z,24.60
2017-07-15T07:35:44.071Z,22.47
2017-07-15T07:38:10.378Z,21.43
2017-07-15T07:40:36.674Z,22.07
2017-07-15T07:43:03.005Z,20.80
2017-07-15T07:45:29.297Z,20.80
2017-07-15T07:47:56.344Z,20.83
2017-07-15T07:50:23.376Z,21.40
2017-07-15T07:52:49.701Z,20.27
2017-07-15T07:55:15.963Z,21.37
2017-07-15T07:57:42.995Z,19.10
2017-07-15T08:00:10.050Z,20.13
2017-07-15T08:02:37.117Z,19.80
2017-07-15T08:05:03.420Z,18.87
2017-07-15T08:07:29.724Z,18.33
2017-07-15T08:09:56.020Z,17.80
2017-07-15T08:12:22.324Z,18.63
2017-07-15T08:14:49.404Z,17.67
2017-07-15T08:17:16.698Z,17.63
2017-07-15T08:19:42.996Z,18.67
2017-07-15T08:22:09.279Z,16.17
2017-07-15T08:24:36.358Z,15.10
2017-07-15T08:27:02.652Z,16.13
2017-07-15T08:29:29.705Z,15.93
2017-07-15T08:31:56.006Z,16.20
2017-07-15T08:34:23.172Z,14.67
2017-07-15T08:36:50.215Z,16.67
2017-07-15T08:39:16.511Z,14.57
2017-07-15T08:41:42.802Z,15.20
2017-07-15T08:44:09.115Z,15.37
2017-07-15T08:46:36.189Z,13.50
2017-07-15T08:49:02.463Z,13.13
2017-07-15T08:51:28.755Z,12.27
2017-07-15T08:53:55.080Z,15.97
2017-07-15T08:56:21.367Z,13.20
2017-07-15T08:58:48.432Z,13.60
2017-07-15T09:01:15.465Z,14.33
2017-07-15T09:03:42.504Z,12.50
2017-07-15T09:06:08.791Z,11.50
2017-07-15T09:08:35.108Z,10.90
2017-07-15T09:11:01.412Z,10.10
2017-07-15T09:13:28.459Z,11.20
2017-07-15T09:15:55.502Z,11.67
2017-07-15T09:18:22.563Z,11.77
2017-07-15T09:20:49.591Z,11.77
2017-07-15T09:23:16.633Z,11.87
2017-07-15T09:25:42.944Z,10.90
2017-07-15T09:28:09.235Z,10.30
2017-07-15T09:30:35.549Z,9.50
2017-07-15T09:33:01.847Z,9.00
2017-07-15T09:35:28.196Z,7.20
2017-07-15T09:37:55.228Z,7.20
2017-07-15T09:40:21.541Z,7.97
2017-07-15T09:42:47.898Z,7.53
2017-07-15T09:45:14.201Z,8.70
2017-07-15T09:47:40.486Z,7.37
2017-07-15T09:50:06.793Z,7.67
2017-07-15T09:52:33.844Z,7.23
2017-07-15T09:55:00.171Z,7.83
2017-07-15T09:57:27.196Z,7.30
2017-07-15T09:59:53.477Z,6.80
2017-07-15T10:02:19.803Z,6.37
2017-07-15T10:04:46.111Z,5.97
2017-07-15T10:07:13.156Z,5.67
2017-07-15T10:09:40.178Z,4.87
2017-07-15T10:12:06.460Z,6.10
2017-07-15T10:14:32.737Z,4.93
2017-07-15T10:16:59.029Z,5.30
2017-07-15T10:19:25.308Z,6.33
2017-07-15T10:21:51.643Z,6.00
2017-07-15T10:24:18.101Z,5.87
2017-07-15T10:26:44.378Z,6.20
2017-07-15T10:29:10.666Z,6.90
2017-07-15T10:31:36.982Z,8.67
2017-07-15T10:34:03.286Z,8.57
2017-07-15T10:36:29.570Z,9.57
2017-07-15T10:38:55.877Z,9.27
2017-07-15T10:41:22.166Z,9.20
2017-07-15T10:43:48.446Z,9.10
2017-07-15T10:46:14.721Z,9.20
2017-07-15T10:48:41.003Z,8.50
2017-07-15T10:51:07.314Z,8.90
2017-07-15T10:53:33.602Z,9.17
2017-07-15T10:55:59.897Z,8.83
2017-07-15T10:58:26.183Z,8.97
2017-07-15T11:00:52.479Z,8.53
2017-07-15T11:03:18.752Z,9.20
2017-07-15T11:05:45.804Z,8.60
2017-07-15T11:08:12.809Z,8.40
2017-07-15T11:10:39.107Z,8.87
2017-07-15T11:13:05.398Z,7.40
2017-07-15T11:15:32.446Z,9.97
2017-07-15T11:17:59.489Z,10.50
2017-07-15T11:20:26.530Z,9.50
2017-07-15T11:22:52.845Z,9.20
2017-07-15T11:25:19.129Z,9.20
2017-07-15T11:27:45.424Z,9.03
2017-07-15T11:30:11.712Z,9.30
2017-07-15T11:32:37.999Z,11.47
2017-07-15T11:35:05.018Z,11.30
2017-07-15T11:37:31.332Z,11.80
2017-07-15T11:39:57.617Z,11.97
2017-07-15T11:42:23.927Z,11.97
2017-07-15T11:44:50.964Z,12.30
2017-07-15T11:47:18.006Z,10.40
2017-07-15T11:49:44.326Z,11.87
2017-07-15T11:52:10.635Z,12.17
2017-07-15T11:54:36.938Z,12.10
2017-07-15T11:57:03.229Z,12.50
2017-07-15T11:59:29.514Z,12.27
2017-07-15T12:01:55.790Z,12.70
2017-07-15T12:04:22.079Z,12.90
2017-07-15T12:06:48.359Z,12.00
2017-07-15T12:09:15.437Z,12.03
2017-07-15T12:11:41.721Z,12.30
2017-07-15T12:14:08.052Z,11.90
2017-07-15T12:16:35.104Z,13.10
2017-07-15T12:19:01.408Z,12.17
2017-07-15T12:21:27.742Z,12.17
2017-07-15T12:23:54.094Z,12.33
2017-07-15T12:26:21.139Z,11.80
2017-07-15T12:28:47.426Z,11.57
2017-07-15T12:31:13.743Z,11.40
2017-07-15T12:33:40.019Z,11.60
2017-07-15T12:36:07.082Z,12.27
2017-07-15T12:38:33.370Z,11.13
2017-07-15T12:40:59.669Z,12.23
2017-07-15T12:43:25.976Z,10.23
2017-07-15T12:45:52.283Z,10.97
2017-07-15T12:48:18.591Z,11.00
2017-07-15T12:50:45.851Z,11.00
2017-07-15T12:53:12.137Z,11.20
2017-07-15T12:55:38.439Z,10.60
2017-07-15T12:58:04.738Z,11.67
2017-07-15T13:00:31.032Z,11.30
2017-07-15T13:02:57.387Z,12.10
2017-07-15T13:05:23.734Z,11.87
2017-07-15T13:07:50.017Z,11.37
2017-07-15T13:10:16.305Z,11.03
2017-07-15T13:12:42.609Z,10.70
2017-07-15T13:15:08.930Z,11.50
2017-07-15T13:17:35.235Z,10.77
2017-07-15T13:20:01.530Z,10.30
2017-07-15T13:22:28.831Z,10.30
2017-07-15T13:24:55.147Z,9.70
2017-07-15T13:27:21.417Z,9.13
2017-07-15T13:29:47.709Z,10.03
2017-07-15T13:32:14.002Z,8.77
2017-07-15T13:34:40.288Z,8.77
2017-07-15T13:37:06.596Z,9.07
2017-07-15T13:39:33.252Z,8.40
2017-07-15T13:41:59.542Z,8.23
2017-07-15T13:44:26.596Z,7.00
2017-07-15T13:46:52.929Z,7.77
2017-07-15T13:49:19.238Z,6.80
2017-07-15T13:51:45.523Z,7.27
2017-07-15T13:54:11.830Z,6.80
2017-07-15T13:56:38.113Z,5.77
2017-07-15T13:59:04.428Z,5.80
2017-07-15T14:01:30.723Z,5.83
2017-07-15T14:03:57.049Z,4.30
2017-07-15T14:06:23.369Z,3.67
2017-07-15T14:08:49.670Z,5.20
2017-07-15T14:11:15.973Z,3.07
2017-07-15T14:13:42.267Z,3.20
2017-07-15T14:16:08.603Z,3.40
2017-07-15T14:18:34.887Z,3.40
2017-07-15T14:21:01.189Z,3.00
2017-07-15T14:23:27.482Z,2.80
2017-07-15T14:25:53.766Z,2.93
2017-07-15T14:28:20.067Z,2.77
2017-07-15T14:30:46.381Z,2.60
2017-07-15T14:33:12.667Z,2.33
2017-07-15T14:35:38.956Z,2.40
2017-07-15T14:38:05.250Z,2.30
2017-07-15T14:40:32.283Z,2.33
2017-07-15T14:42:59.328Z,2.70
2017-07-15T14:45:26.373Z,2.40
2017-07-15T14:47:52.688Z,2.60
2017-07-15T14:50:18.985Z,2.90
2017-07-15T14:52:45.242Z,2.70
2017-07-15T14:55:11.539Z,2.53
2017-07-15T14:57:37.827Z,2.60
2017-07-15T15:00:04.105Z,2.80
2017-07-15T15:02:30.423Z,2.57
2017-07-15T15:04:56.813Z,2.57
2017-07-15T15:07:23.851Z,2.43
2017-07-15T15:09:50.184Z,2.40
2017-07-15T15:12:17.234Z,2.07
2017-07-15T15:14:43.542Z,2.27
2017-07-15T15:17:09.816Z,1.50
2017-07-15T15:19:36.138Z,1.80
2017-07-15T15:22:02.444Z,1.50
2017-07-15T15:24:28.758Z,1.80
2017-07-15T15:26:55.065Z,1.70
2017-07-15T15:29:21.354Z,1.60
2017-07-15T15:31:47.626Z,1.60
2017-07-15T15:34:14.020Z,1.57
2017-07-15T15:36:40.339Z,2.33
2017-07-15T15:39:06.666Z,2.80
2017-07-15T15:41:33.878Z,3.77
2017-07-15T15:44:00.131Z,3.37
2017-07-15T15:46:26.459Z,3.60
2017-07-15T15:48:52.756Z,3.83
2017-07-15T15:51:19.068Z,3.87
2017-07-15T15:53:45.347Z,3.90
2017-07-15T15:56:11.661Z,4.23
2017-07-15T15:58:37.967Z,3.97
2017-07-15T16:01:04.249Z,3.93
2017-07-15T16:03:30.561Z,14.27
2017-07-15T16:05:56.822Z,6.33
2017-07-15T16:08:23.139Z,5.13
2017-07-15T16:10:49.445Z,4.23
2017-07-15T16:13:15.761Z,4.80
2017-07-15T16:15:42.379Z,4.77
2017-07-15T16:18:08.670Z,4.53
2017-07-15T16:20:34.995Z,5.03
2017-07-15T16:23:01.255Z,5.10
2017-07-15T16:25:27.574Z,4.73
2017-07-15T16:27:53.847Z,4.90
2017-07-15T16:30:20.161Z,5.00
2017-07-15T16:32:46.452Z,5.30
2017-07-15T16:35:20.569Z,4.73
2017-07-15T16:37:46.897Z,5.30
2017-07-15T16:40:13.222Z,5.13
2017-07-15T16:42:39.557Z,4.63
2017-07-15T16:45:06.616Z,5.53
2017-07-15T16:47:32.896Z,5.33
2017-07-15T16:49:59.198Z,4.60
2017-07-15T16:52:26.328Z,4.77
2017-07-15T16:54:52.616Z,5.20
2017-07-15T16:57:18.933Z,4.60
2017-07-15T16:59:45.218Z,4.30
2017-07-15T17:02:11.517Z,4.40
2017-07-15T17:04:38.555Z,4.30
2017-07-15T17:07:04.890Z,4.10
2017-07-15T17:09:31.179Z,3.77
2017-07-15T17:11:57.510Z,3.20
2017-07-15T17:14:23.828Z,3.20
2017-07-15T17:16:50.105Z,2.97
2017-07-15T17:19:16.398Z,3.00
2017-07-15T17:21:43.547Z,3.57
2017-07-15T17:24:09.823Z,3.43
2017-07-15T17:26:36.110Z,3.80
2017-07-15T17:29:02.434Z,3.30
2017-07-15T17:31:28.673Z,3.10
2017-07-15T17:33:55.038Z,5.03
2017-07-15T17:36:21.346Z,3.57
2017-07-15T17:38:47.677Z,3.10
2017-07-15T17:41:13.973Z,3.20
2017-07-15T17:43:40.270Z,3.43
2017-07-15T17:46:06.562Z,3.37
2017-07-15T17:48:32.877Z,3.60
2017-07-15T17:50:59.178Z,3.07
2017-07-15T17:53:25.445Z,3.33
2017-07-15T17:55:51.723Z,3.80
2017-07-15T17:58:18.008Z,3.37
2017-07-15T18:00:44.310Z,3.13
2017-07-15T18:03:10.609Z,3.90
2017-07-15T18:05:36.877Z,3.77
2017-07-15T18:08:03.182Z,3.43
2017-07-15T18:10:29.479Z,3.80
2017-07-15T18:12:55.781Z,3.80
2017-07-15T18:15:22.119Z,3.77
2017-07-15T18:17:48.433Z,3.53
2017-07-15T18:20:14.712Z,3.70
2017-07-15T18:22:41.742Z,3.30
2017-07-15T18:25:08.058Z,3.70
2017-07-15T18:27:34.338Z,3.40
2017-07-15T18:30:00.661Z,3.20
2017-07-15T18:32:27.716Z,3.83
2017-07-15T18:34:54.042Z,3.70
2017-07-15T18:37:20.339Z,3.57
2017-07-15T18:39:46.605Z,3.87
2017-07-15T18:42:12.919Z,3.23
2017-07-15T18:44:39.235Z,3.70
2017-07-15T18:47:06.278Z,4.13
2017-07-15T18:49:33.317Z,4.33
2017-07-15T18:52:00.366Z,4.77
2017-07-15T18:54:26.706Z,4.90
2017-07-15T18:56:53.054Z,4.30
2017-07-15T18:59:19.352Z,4.43
2017-07-15T19:01:45.674Z,4.47
2017-07-15T19:04:11.958Z,4.57
2017-07-15T19:06:38.234Z,4.97
2017-07-15T19:09:04.556Z,5.10
2017-07-15T19:11:30.933Z,5.17
2017-07-15T19:13:57.227Z,4.50
2017-07-15T19:16:23.540Z,4.30
2017-07-15T19:18:49.847Z,4.33
2017-07-15T19:21:16.139Z,4.97
2017-07-15T19:23:43.191Z,4.93
2017-07-15T19:26:09.479Z,4.70
2017-07-15T19:28:35.780Z,5.23
2017-07-15T19:31:02.064Z,4.57
2017-07-15T19:33:28.317Z,4.90
2017-07-15T19:35:54.612Z,5.07
2017-07-15T19:38:20.902Z,4.50
2017-07-15T19:40:47.888Z,4.73
2017-07-15T19:43:14.161Z,5.17
2017-07-15T19:45:40.445Z,4.97
2017-07-15T19:48:06.759Z,5.47
2017-07-15T19:50:33.068Z,4.30
2017-07-15T19:52:59.345Z,5.03
2017-07-15T19:55:25.648Z,4.50
2017-07-15T19:57:51.919Z,5.40
2017-07-15T20:00:18.941Z,4.83
2017-07-15T20:02:45.240Z,4.80
2017-07-15T20:05:11.515Z,5.40
2017-07-15T20:07:37.778Z,4.50
2017-07-15T20:10:04.058Z,5.00
2017-07-15T20:12:30.330Z,5.30
2017-07-15T20:14:56.598Z,5.67
2017-07-15T20:17:22.880Z,5.63
2017-07-15T20:19:49.195Z,5.50
2017-07-15T20:22:15.458Z,5.80
2017-07-15T20:24:41.731Z,5.23
2017-07-15T20:27:08.005Z,4.80
2017-07-15T20:29:34.275Z,5.67
2017-07-15T20:32:00.551Z,5.93
2017-07-15T20:34:27.572Z,5.97
2017-07-15T20:37:08.832Z,5.10
2017-07-15T20:39:35.111Z,5.33
2017-07-15T20:42:01.401Z,5.33
2017-07-15T20:44:27.745Z,5.63
2017-07-15T20:46:54.049Z,6.00
2017-07-15T20:49:20.555Z,5.80
2017-07-15T20:51:47.567Z,7.00
2017-07-15T20:54:20.776Z,6.30
2017-07-15T20:56:47.062Z,6.57
2017-07-15T20:59:13.320Z,6.10
2017-07-15T21:01:39.594Z,5.80
2017-07-15T21:04:06.902Z,5.60
2017-07-15T21:06:33.921Z,6.50
2017-07-15T21:09:00.191Z,6.40
2017-07-15T21:11:26.463Z,5.60
2017-07-15T21:13:52.767Z,5.90
2017-07-15T21:16:19.046Z,6.40
2017-07-15T21:18:45.324Z,6.50
2017-07-15T21:21:11.602Z,6.30
2017-07-15T21:23:37.891Z,6.47
2017-07-15T21:26:04.162Z,6.10
2017-07-15T21:28:30.420Z,5.87
2017-07-15T21:30:56.704Z,7.33
2017-07-15T21:33:22.958Z,6.70
2017-07-15T21:35:49.223Z,7.10
2017-07-15T21:38:15.531Z,7.70
2017-07-15T21:40:42.572Z,9.30
2017-07-15T21:43:09.609Z,7.63
2017-07-15T21:45:36.627Z,7.80
2017-07-15T21:48:02.907Z,7.40
2017-07-15T21:50:29.940Z,8.83
2017-07-15T21:52:56.966Z,8.10
2017-07-15T21:55:23.261Z,6.57
2017-07-15T21:57:49.523Z,7.80
2017-07-15T22:00:16.562Z,7.90
2017-07-15T22:02:42.891Z,7.87
2017-07-15T22:05:09.214Z,8.00
2017-07-15T22:07:35.585Z,7.70
2017-07-15T22:10:01.901Z,7.23
2017-07-15T22:12:28.163Z,7.13
2017-07-15T22:14:55.242Z,6.60
2017-07-15T22:17:21.477Z,6.67
2017-07-15T22:19:47.751Z,6.70
2017-07-15T22:22:14.018Z,6.23
2017-07-15T22:24:40.262Z,6.40
2017-07-15T22:27:06.518Z,5.73
2017-07-15T22:29:33.107Z,6.20
2017-07-15T22:31:59.402Z,5.90
2017-07-15T22:34:25.664Z,6.07
2017-07-15T22:36:52.654Z,5.67
2017-07-15T22:39:18.900Z,5.70
2017-07-15T22:41:45.192Z,6.23
2017-07-15T22:44:11.440Z,6.17
2017-07-15T22:46:37.686Z,6.20
2017-07-15T22:49:03.944Z,6.33
2017-07-15T22:51:30.943Z,5.47
2017-07-15T22:53:57.197Z,5.43
2017-07-15T22:56:23.446Z,5.13
2017-07-15T22:58:50.446Z,4.93
2017-07-15T23:01:16.694Z,5.10
2017-07-15T23:03:43.261Z,5.00
2017-07-15T23:06:10.262Z,4.90
2017-07-15T23:08:36.526Z,4.20
2017-07-15T23:11:02.767Z,5.30
2017-07-15T23:13:29.778Z,4.57
2017-07-15T23:15:56.019Z,4.60
2017-07-15T23:18:22.278Z,5.17
2017-07-15T23:20:48.556Z,5.23
2017-07-15T23:23:14.791Z,4.30
2017-07-15T23:25:41.051Z,4.50
2017-07-15T23:28:08.024Z,5.27
2017-07-15T23:30:34.282Z,4.80
2017-07-15T23:33:00.521Z,4.60
2017-07-15T23:35:26.763Z,4.90
2017-07-15T23:37:52.990Z,4.90
2017-07-15T23:40:19.235Z,4.80
2017-07-15T23:42:46.245Z,5.20
2017-07-15T23:45:13.301Z,4.87
2017-07-15T23:47:39.538Z,4.83
2017-07-15T23:50:05.785Z,5.03
2017-07-15T23:52:32.786Z,4.50
2017-07-15T23:54:59.042Z,4.80
2017-07-15T23:57:25.313Z,5.70
2017-07-15T23:59:51.542Z,4.90
